Nearby METAR Reports

 

KOJC - Olathe/Executive, Kansas, USA
Distance from station: S 9mi, 15km
Updated: Thu, 24-May-2018 4:53am CDT
Clear
Clear
 Wind from SSE
Wind: SSE 8 mph , 13 km/h
Temperature: 64°F , 18°C
Dew Point: 64°F , 18°C
Humidity: 100%
Barometer: 30.10 inHg , 1019.3 hPa
Clouds: Clear
Visibility: 10 miles , 16 km
2018/05/24 09:53 KOJC 240953Z AUTO 15007KT 10SM CLR 18/18 A3010 RMK AO2 SLP182 T01780178
KMKC - Kansas City/Dntn, Missouri, USA
Distance from station: NE 12mi, 20km
Updated: Thu, 24-May-2018 4:54am CDT
Clear
Clear
 Wind from S
Wind: S 6 mph , 9 km/h
Temperature: 70°F , 21°C
Dew Point: 63°F , 17°C
Humidity: 78%
Barometer: 30.09 inHg , 1019 hPa
Clouds: Clear
Visibility: 10 miles , 16 km
2018/05/24 09:54 KMKC 240954Z 19005KT 10SM CLR 21/17 A3009 RMK AO2 SLP179 T02110167
 
KIXD - Olathe/Industria, Kansas, USA
Distance from station: SSW 14mi, 22km
Updated: Thu, 24-May-2018 4:53am CDT
Clear
Clear
 Wind from SSE
Wind: SSE 7 mph , 11 km/h
Temperature: 66°F , 19°C
Dew Point: 64°F , 18°C
Humidity: 94%
Barometer: 30.10 inHg , 1019.3 hPa
Clouds: Clear
Visibility: 10 miles , 16 km
2018/05/24 09:53 KIXD 240953Z AUTO 16006KT 10SM CLR 19/18 A3010 RMK AO2 SLP181 T01940183 $
KLXT - Lees Summit Muni, Missouri, USA
Distance from station: E 21mi, 33km
Updated: Thu, 24-May-2018 4:53am CDT
Clear
Clear
 Wind from SSE
Wind: SSE 6 mph , 9 km/h
Temperature: 66°F , 19°C
Dew Point: 64°F , 18°C
Humidity: 94%
Barometer: 30.11 inHg , 1019.6 hPa
Clouds: Clear
Visibility: 10 miles , 16 km
2018/05/24 09:53 KLXT 240953Z AUTO 15005KT 10SM CLR 19/18 A3011 RMK AO2 SLP187 T01890178
 
KMCI - Kansas City/Intl, Missouri, USA
Distance from station: N 22mi, 35km
Updated: Thu, 24-May-2018 4:53am CDT
Clear
Clear
 Wind from SSE
Wind: SSE 7 mph , 11 km/h
Temperature: 66°F , 19°C
Dew Point: 63°F , 17°C
Humidity: 88%
Barometer: 30.09 inHg , 1019 hPa
Clouds: Clear
Visibility: 10 miles , 16 km
2018/05/24 09:53 KMCI 240953Z 16006KT 10SM CLR 19/17 A3009 RMK AO2 SLP180 T01890172
KLWC - Lawrence, Kansas, USA
Distance from station: W 25mi, 40km
Updated: Thu, 24-May-2018 4:52am CDT
Clear
Clear
 Wind from SE
Wind: SE 5 mph , 7 km/h
Temperature: 66°F , 19°C
Dew Point: 66°F , 19°C
Humidity: 100%
Barometer: 30.08 inHg , 1018.6 hPa
Clouds: Clear
Visibility: 10 miles , 16 km
2018/05/24 09:52 KLWC 240952Z AUTO 13004KT 10SM CLR 19/19 A3008 RMK AO2 SLP179 T01890189
 
KGPH - Mosby, Missouri, USA
Distance from station: NE 34mi, 54km
Updated: Thu, 24-May-2018 4:55am CDT
Clear
Clear
 Wind from calm
Wind: Calm
Temperature: 64°F , 18°C
Dew Point: 63°F , 17°C
Humidity: 94%
Barometer: 30.10 inHg , 1019.3 hPa
Clouds: Clear
Visibility: 10 miles , 16 km
2018/05/24 09:55 KGPH 240955Z AUTO 00000KT 10SM CLR 18/17 A3010 RMK AO2
KTOP - Topeka, Kansas, USA
Distance from station: W 48mi, 77km
Updated: Thu, 24-May-2018 4:53am CDT
Few Clouds
Few Clouds
 Wind from SE
Wind: SE 3 mph , 6 km/h
Temperature: 70°F , 21°C
Dew Point: 70°F , 21°C
Humidity: 100%
Barometer: 30.06 inHg , 1017.9 hPa
Clouds: Few Clouds
Visibility: 10 miles , 16 km
Cloud details: Few Clouds 1100 ft
2018/05/24 09:53 KTOP 240953Z AUTO 13003KT 10SM FEW011 21/21 A3006 RMK AO2 SLP172 T02110206
 
KFOE - Topeka/Forbes, Kansas, USA
Distance from station: W 48mi, 78km
Updated: Thu, 24-May-2018 4:53am CDT
Clear
Clear
 Wind from SE
Wind: SE 6 mph , 9 km/h
Temperature: 70°F , 21°C
Dew Point: 68°F , 20°C
Humidity: 94%
Barometer: 30.07 inHg , 1018.3 hPa
Clouds: Clear
Visibility: 8 miles , 13 km
2018/05/24 09:53 KFOE 240953Z AUTO 14005KT 8SM CLR 21/20 A3007 RMK AO2 SLP171 T02110200